Time,TemperatureF,DewpointF,PressureIn,WindDirection,WindDirectionDegrees,WindSpeedMPH,WindSpeedGustMPH,Humidity,HourlyPrecipIn,Conditions,Clouds,dailyrainin,SoftwareType,DateUTC
2013-06-29 00:04:00,73.5,55.3,29.95,NW,320,1.0,4.0,53,0.00,,SKC,0.00,VWS V13.01,2013-06-29 05:04:00,
2013-06-29 00:10:00,73.3,55.2,29.95,NW,322,0.0,0.0,53,0.00,,SKC,0.00,VWS V13.01,2013-06-29 05:10:00,
2013-06-29 00:15:00,73.2,55.1,29.95,NW,321,0.0,0.0,53,0.00,,SKC,0.00,VWS V13.01,2013-06-29 05:15:00,
2013-06-29 00:20:00,73.1,55.5,29.95,NW,313,0.0,1.0,54,0.00,,SKC,0.00,VWS V13.01,2013-06-29 05:20:00,
2013-06-29 00:25:00,72.9,55.3,29.95,NW,313,4.0,5.0,54,0.00,,SKC,0.00,VWS V13.01,2013-06-29 05:25:00,
2013-06-29 00:30:00,72.7,55.1,29.94,NW,313,0.0,1.0,54,0.00,,SKC,0.00,VWS V13.01,2013-06-29 05:30:00,
2013-06-29 00:35:00,72.5,55.4,29.94,WNW,297,2.0,7.0,55,0.00,,SKC,0.00,VWS V13.01,2013-06-29 05:35:00,
2013-06-29 00:41:00,72.2,55.2,29.94,WNW,298,0.0,2.0,55,0.00,,SKC,0.00,VWS V13.01,2013-06-29 05:41:00,
2013-06-29 00:46:00,72.0,55.5,29.94,WNW,300,0.0,0.0,56,0.00,,SKC,0.00,VWS V13.01,2013-06-29 05:46:00,
2013-06-29 00:51:00,71.7,55.7,29.95,NW,309,0.0,2.0,57,0.00,,SKC,0.00,VWS V13.01,2013-06-29 05:51:00,
2013-06-29 00:56:00,71.5,55.5,29.95,NW,307,1.0,5.0,57,0.00,,SKC,0.00,VWS V13.01,2013-06-29 05:56:00,
2013-06-29 01:01:00,71.3,55.8,29.94,NW,307,0.0,4.0,58,0.00,,SKC,0.00,VWS V13.01,2013-06-29 06:01:00,
2013-06-29 01:06:00,71.0,55.5,29.94,NW,307,0.0,0.0,58,0.00,,SKC,0.00,VWS V13.01,2013-06-29 06:06:00,
2013-06-29 01:12:00,70.8,55.3,29.94,NW,307,0.0,0.0,58,0.00,,SKC,0.00,VWS V13.01,2013-06-29 06:12:00,
2013-06-29 01:18:00,70.7,55.7,29.94,NW,311,0.0,0.0,59,0.00,,SKC,0.00,VWS V13.01,2013-06-29 06:18:00,
2013-06-29 01:23:00,70.6,55.6,29.94,NW,309,0.0,0.0,59,0.00,,SKC,0.00,VWS V13.01,2013-06-29 06:23:00,
2013-06-29 01:29:00,70.4,55.4,29.94,NW,309,0.0,0.0,59,0.00,,SKC,0.00,VWS V13.01,2013-06-29 06:29:00,
2013-06-29 01:35:00,70.3,55.8,29.94,NW,309,0.0,0.0,60,0.00,,SKC,0.00,VWS V13.01,2013-06-29 06:35:00,
2013-06-29 01:40:00,70.2,55.7,29.94,NW,309,0.0,0.0,60,0.00,,SKC,0.00,VWS V13.01,2013-06-29 06:40:00,
2013-06-29 01:45:00,70.0,55.5,29.94,NW,309,0.0,0.0,60,0.00,,SKC,0.00,VWS V13.01,2013-06-29 06:45:00,
2013-06-29 01:50:00,69.8,55.8,29.94,NW,309,0.0,0.0,61,0.00,,SKC,0.00,VWS V13.01,2013-06-29 06:50:00,
2013-06-29 01:55:00,69.6,56.0,29.94,NW,309,0.0,0.0,62,0.00,,SKC,0.00,VWS V13.01,2013-06-29 06:55:00,
2013-06-29 02:00:00,69.4,55.8,29.94,NW,309,0.0,0.0,62,0.00,,SKC,0.00,VWS V13.01,2013-06-29 07:00:00,
2013-06-29 02:05:00,69.2,56.1,29.94,NW,309,2.0,5.0,63,0.00,,SKC,0.00,VWS V13.01,2013-06-29 07:05:00,
2013-06-29 02:10:00,69.1,56.0,29.94,NW,308,5.0,5.0,63,0.00,,SKC,0.00,VWS V13.01,2013-06-29 07:10:00,
2013-06-29 02:15:00,69.0,55.9,29.94,WNW,299,0.0,4.0,63,0.00,,SKC,0.00,VWS V13.01,2013-06-29 07:15:00,
2013-06-29 02:21:00,68.8,56.1,29.94,NW,315,0.0,0.0,64,0.00,,SKC,0.00,VWS V13.01,2013-06-29 07:21:00,
2013-06-29 02:27:00,68.7,56.0,29.94,NW,315,0.0,0.0,64,0.00,,SKC,0.00,VWS V13.01,2013-06-29 07:27:00,
2013-06-29 02:32:00,68.6,56.4,29.94,NW,315,0.0,0.0,65,0.00,,SKC,0.00,VWS V13.01,2013-06-29 07:32:00,
2013-06-29 02:37:00,68.5,56.3,29.93,NW,315,0.0,0.0,65,0.00,,SKC,0.00,VWS V13.01,2013-06-29 07:37:00,
2013-06-29 02:42:00,68.4,56.2,29.93,NW,315,0.0,0.0,65,0.00,,SKC,0.00,VWS V13.01,2013-06-29 07:42:00,
2013-06-29 02:47:00,68.3,56.1,29.93,NW,315,0.0,0.0,65,0.00,,SKC,0.00,VWS V13.01,2013-06-29 07:47:00,
2013-06-29 02:52:00,68.3,56.1,29.93,NW,315,0.0,2.0,65,0.00,,SKC,0.00,VWS V13.01,2013-06-29 07:52:00,
2013-06-29 02:57:00,68.3,56.1,29.93,NW,318,0.0,0.0,65,0.00,,SKC,0.00,VWS V13.01,2013-06-29 07:57:00,
2013-06-29 03:03:00,68.3,56.1,29.93,WNW,296,5.0,6.0,65,0.00,,SKC,0.00,VWS V13.01,2013-06-29 08:03:00,
2013-06-29 03:08:00,68.3,56.1,29.93,WNW,303,5.0,5.0,65,0.00,,SKC,0.00,VWS V13.01,2013-06-29 08:08:00,
2013-06-29 03:13:00,68.3,56.1,29.93,WNW,288,0.0,0.0,65,0.00,,SKC,0.00,VWS V13.01,2013-06-29 08:13:00,
2013-06-29 03:18:00,68.2,56.0,29.93,WNW,302,0.0,0.0,65,0.00,,SKC,0.00,VWS V13.01,2013-06-29 08:18:00,
2013-06-29 03:23:00,68.2,56.0,29.93,WNW,298,0.0,0.0,65,0.00,,SKC,0.00,VWS V13.01,2013-06-29 08:23:00,
2013-06-29 03:28:00,68.1,55.9,29.93,NW,305,2.0,6.0,65,0.00,,SKC,0.00,VWS V13.01,2013-06-29 08:28:00,
2013-06-29 03:34:00,68.1,55.9,29.93,NW,321,2.0,9.0,65,0.00,,SKC,0.00,VWS V13.01,2013-06-29 08:34:00,
2013-06-29 03:39:00,68.1,55.9,29.93,WNW,286,2.0,6.0,65,0.00,,SKC,0.00,VWS V13.01,2013-06-29 08:39:00,
2013-06-29 03:44:00,68.0,56.2,29.93,WNW,302,0.0,0.0,66,0.00,,SKC,0.00,VWS V13.01,2013-06-29 08:44:00,
2013-06-29 03:49:00,67.9,56.1,29.93,NW,304,0.0,0.0,66,0.00,,SKC,0.00,VWS V13.01,2013-06-29 08:49:00,
2013-06-29 03:54:00,67.8,56.0,29.93,WNW,291,0.0,7.0,66,0.00,,SKC,0.00,VWS V13.01,2013-06-29 08:54:00,
2013-06-29 03:59:00,67.7,56.0,29.93,NW,316,0.0,6.0,66,0.00,,SKC,0.00,VWS V13.01,2013-06-29 08:59:00,
2013-06-29 04:04:00,67.7,56.0,29.93,WNW,282,0.0,7.0,66,0.00,,SKC,0.00,VWS V13.01,2013-06-29 09:04:00,
2013-06-29 04:09:00,67.6,55.8,29.94,NW,305,2.0,6.0,66,0.00,,SKC,0.00,VWS V13.01,2013-06-29 09:09:00,
2013-06-29 04:14:00,67.6,55.8,29.94,WNW,296,4.0,11.0,66,0.00,,SKC,0.00,VWS V13.01,2013-06-29 09:14:00,
2013-06-29 04:19:00,67.6,55.8,29.94,WNW,299,0.0,6.0,66,0.00,,SKC,0.00,VWS V13.01,2013-06-29 09:19:00,
2013-06-29 04:25:00,67.5,55.8,29.94,WNW,300,0.0,0.0,66,0.00,,SKC,0.00,VWS V13.01,2013-06-29 09:25:00,
2013-06-29 04:30:00,67.5,55.8,29.94,NW,315,0.0,0.0,66,0.00,,SKC,0.00,VWS V13.01,2013-06-29 09:30:00,
2013-06-29 04:35:00,67.3,56.0,29.94,NW,316,0.0,0.0,67,0.00,,SKC,0.00,VWS V13.01,2013-06-29 09:35:00,
2013-06-29 04:40:00,67.3,56.0,29.94,WNW,292,0.0,5.0,67,0.00,,SKC,0.00,VWS V13.01,2013-06-29 09:40:00,
2013-06-29 04:46:00,67.2,55.9,29.94,NW,309,0.0,12.0,67,0.00,,SKC,0.00,VWS V13.01,2013-06-29 09:46:00,
2013-06-29 04:51:00,67.1,55.8,29.94,NW,310,0.0,5.0,67,0.00,,SKC,0.00,VWS V13.01,2013-06-29 09:51:00,
2013-06-29 04:56:00,67.1,55.8,29.94,NW,310,0.0,0.0,67,0.00,,SKC,0.00,VWS V13.01,2013-06-29 09:56:00,
2013-06-29 05:01:00,67.0,55.7,29.94,WNW,295,5.0,11.0,67,0.00,,SKC,0.00,VWS V13.01,2013-06-29 10:01:00,
2013-06-29 05:06:00,67.0,56.1,29.94,WNW,293,0.0,7.0,68,0.00,,SKC,0.00,VWS V13.01,2013-06-29 10:06:00,
2013-06-29 05:11:00,66.9,56.0,29.94,WNW,301,0.0,0.0,68,0.00,,SKC,0.00,VWS V13.01,2013-06-29 10:11:00,
2013-06-29 05:16:00,66.8,55.9,29.94,NW,309,0.0,0.0,68,0.00,,SKC,0.00,VWS V13.01,2013-06-29 10:16:00,
2013-06-29 05:21:00,66.7,55.8,29.94,NW,309,0.0,0.0,68,0.00,,SKC,0.00,VWS V13.01,2013-06-29 10:21:00,
2013-06-29 05:26:00,66.6,55.7,29.94,NNW,327,0.0,0.0,68,0.00,,SKC,0.00,VWS V13.01,2013-06-29 10:26:00,
2013-06-29 05:31:00,66.5,56.0,29.94,WNW,291,0.0,4.0,69,0.00,,SKC,0.00,VWS V13.01,2013-06-29 10:31:00,
2013-06-29 05:36:00,66.5,56.0,29.94,NW,305,0.0,8.0,69,0.00,,SKC,0.00,VWS V13.01,2013-06-29 10:36:00,
2013-06-29 05:41:00,66.4,55.9,29.94,WNW,293,0.0,4.0,69,0.00,,SKC,0.00,VWS V13.01,2013-06-29 10:41:00,
2013-06-29 05:46:00,66.3,55.8,29.94,NW,307,0.0,0.0,69,0.00,,SKC,0.00,VWS V13.01,2013-06-29 10:46:00,
2013-06-29 05:51:00,66.2,55.7,29.95,WNW,292,0.0,5.0,69,0.00,,SKC,0.00,VWS V13.01,2013-06-29 10:51:00,
2013-06-29 05:56:00,66.1,56.0,29.95,NW,305,0.0,5.0,70,0.00,,SKC,0.00,VWS V13.01,2013-06-29 10:56:00,
2013-06-29 06:01:00,66.0,56.0,29.95,NW,305,0.0,0.0,70,0.00,,SKC,0.00,VWS V13.01,2013-06-29 11:01:00,
2013-06-29 06:06:00,65.8,56.2,29.95,NW,306,0.0,0.0,71,0.00,,SKC,0.00,VWS V13.01,2013-06-29 11:06:00,
2013-06-29 06:11:00,65.7,56.0,29.95,WNW,301,0.0,0.0,71,0.00,,SKC,0.00,VWS V13.01,2013-06-29 11:11:00,
2013-06-29 06:16:00,65.6,56.0,29.95,WNW,298,0.0,0.0,71,0.00,,SKC,0.00,VWS V13.01,2013-06-29 11:16:00,
2013-06-29 06:21:00,65.4,56.2,29.95,NW,318,0.0,0.0,72,0.00,,SKC,0.00,VWS V13.01,2013-06-29 11:21:00,
2013-06-29 06:26:00,65.5,56.2,29.95,NW,305,0.0,4.0,72,0.00,,SKC,0.00,VWS V13.01,2013-06-29 11:26:00,
2013-06-29 06:31:00,65.5,56.2,29.95,NW,310,0.0,7.0,72,0.00,,SKC,0.00,VWS V13.01,2013-06-29 11:31:00,
2013-06-29 06:36:00,65.4,56.2,29.95,NW,310,0.0,0.0,72,0.00,,SKC,0.00,VWS V13.01,2013-06-29 11:36:00,
2013-06-29 06:41:00,65.5,56.2,29.95,NW,313,4.0,7.0,72,0.00,,SKC,0.00,VWS V13.01,2013-06-29 11:41:00,
2013-06-29 06:46:00,65.6,56.3,29.95,WNW,300,0.0,0.0,72,0.00,,SKC,0.00,VWS V13.01,2013-06-29 11:46:00,
2013-06-29 06:51:00,65.8,56.5,29.95,WNW,286,0.0,1.0,72,0.00,,SKC,0.00,VWS V13.01,2013-06-29 11:51:00,
2013-06-29 06:56:00,66.0,56.7,29.95,WNW,292,0.0,5.0,72,0.00,,SKC,0.00,VWS V13.01,2013-06-29 11:56:00,
2013-06-29 07:01:00,66.2,56.5,29.94,WNW,295,7.0,7.0,71,0.00,,SKC,0.00,VWS V13.01,2013-06-29 12:01:00,
2013-06-29 07:06:00,66.4,56.7,29.95,WNW,300,1.0,7.0,71,0.00,,SKC,0.00,VWS V13.01,2013-06-29 12:06:00,
2013-06-29 07:11:00,66.6,56.9,29.95,WNW,294,0.0,7.0,71,0.00,,SKC,0.00,VWS V13.01,2013-06-29 12:11:00,
2013-06-29 07:16:00,66.7,57.0,29.95,NW,308,0.0,7.0,71,0.00,,SKC,0.00,VWS V13.01,2013-06-29 12:16:00,
2013-06-29 07:21:00,66.9,57.2,29.95,NNW,332,0.0,0.0,71,0.00,,SKC,0.00,VWS V13.01,2013-06-29 12:21:00,
2013-06-29 07:26:00,67.0,57.3,29.95,WNW,299,1.0,7.0,71,0.00,,SKC,0.00,VWS V13.01,2013-06-29 12:26:00,
2013-06-29 07:31:00,67.1,57.4,29.95,NW,306,2.0,4.0,71,0.00,,SKC,0.00,VWS V13.01,2013-06-29 12:31:00,
2013-06-29 07:36:00,67.2,57.5,29.96,WNW,303,4.0,7.0,71,0.00,,SKC,0.00,VWS V13.01,2013-06-29 12:36:00,
2013-06-29 07:41:00,67.4,57.7,29.96,NW,307,0.0,8.0,71,0.00,,SKC,0.00,VWS V13.01,2013-06-29 12:41:00,
2013-06-29 07:46:00,67.5,57.8,29.96,NNW,329,0.0,10.0,71,0.00,,SKC,0.00,VWS V13.01,2013-06-29 12:46:00,
2013-06-29 07:51:00,67.7,58.0,29.95,NW,307,0.0,8.0,71,0.00,,SKC,0.00,VWS V13.01,2013-06-29 12:51:00,
2013-06-29 07:56:00,67.8,58.1,29.96,WNW,301,0.0,0.0,71,0.00,,SKC,0.00,VWS V13.01,2013-06-29 12:56:00,
2013-06-29 08:01:00,68.0,58.3,29.96,WNW,298,5.0,5.0,71,0.00,,SKC,0.00,VWS V13.01,2013-06-29 13:01:00,
2013-06-29 08:06:00,68.2,58.0,29.95,NW,308,1.0,9.0,70,0.00,,SKC,0.00,VWS V13.01,2013-06-29 13:06:00,
2013-06-29 08:11:00,68.3,58.5,29.95,NW,315,6.0,13.0,71,0.00,,SKC,0.00,VWS V13.01,2013-06-29 13:11:00,
2013-06-29 08:16:00,68.6,58.4,29.95,NW,325,7.0,13.0,70,0.00,,SKC,0.00,VWS V13.01,2013-06-29 13:16:00,
2013-06-29 08:21:00,68.9,59.1,29.95,NW,316,0.0,0.0,71,0.00,,SKC,0.00,VWS V13.01,2013-06-29 13:21:00,
2013-06-29 08:26:00,69.2,59.0,29.95,WNW,289,0.0,9.0,70,0.00,,SKC,0.00,VWS V13.01,2013-06-29 13:26:00,
2013-06-29 08:31:00,69.4,58.8,29.95,WNW,300,8.0,9.0,69,0.00,,SKC,0.00,VWS V13.01,2013-06-29 13:31:00,
2013-06-29 08:36:00,69.7,59.1,29.95,WNW,287,5.0,11.0,69,0.00,,SKC,0.00,VWS V13.01,2013-06-29 13:36:00,
2013-06-29 08:41:00,69.9,59.3,29.95,NW,311,9.0,12.0,69,0.00,,SKC,0.00,VWS V13.01,2013-06-29 13:41:00,
2013-06-29 08:46:00,70.2,59.6,29.96,NW,320,12.0,13.0,69,0.00,,SKC,0.00,VWS V13.01,2013-06-29 13:46:00,
2013-06-29 08:51:00,70.5,59.4,29.95,WNW,288,8.0,11.0,68,0.00,,SKC,0.00,VWS V13.01,2013-06-29 13:51:00,
2013-06-29 08:56:00,70.8,59.3,29.95,WNW,300,0.0,13.0,67,0.00,,SKC,0.00,VWS V13.01,2013-06-29 13:56:00,
2013-06-29 09:01:00,71.1,59.6,29.95,NNW,330,8.0,14.0,67,0.00,,SKC,0.00,VWS V13.01,2013-06-29 14:01:00,
2013-06-29 09:06:00,71.4,59.9,29.95,WNW,297,4.0,13.0,67,0.00,,SKC,0.00,VWS V13.01,2013-06-29 14:06:00,
2013-06-29 09:11:00,71.9,59.9,29.95,NNE,12,7.0,8.0,66,0.00,,SKC,0.00,VWS V13.01,2013-06-29 14:11:00,
2013-06-29 09:16:00,72.3,60.3,29.95,WNW,290,2.0,5.0,66,0.00,,SKC,0.00,VWS V13.01,2013-06-29 14:16:00,
2013-06-29 09:21:00,72.8,60.4,29.96,WNW,293,5.0,12.0,65,0.00,,SKC,0.00,VWS V13.01,2013-06-29 14:21:00,
2013-06-29 09:26:00,73.0,60.5,29.96,NNE,19,3.0,7.0,65,0.00,,SKC,0.00,VWS V13.01,2013-06-29 14:26:00,
2013-06-29 09:31:00,73.2,60.7,29.96,WNW,296,0.0,4.0,65,0.00,,SKC,0.00,VWS V13.01,2013-06-29 14:31:00,
2013-06-29 09:36:00,73.6,61.1,29.95,North,358,2.0,12.0,65,0.00,,SKC,0.00,VWS V13.01,2013-06-29 14:36:00,
2013-06-29 09:41:00,74.1,61.2,29.95,WNW,297,4.0,14.0,64,0.00,,SKC,0.00,VWS V13.01,2013-06-29 14:41:00,
2013-06-29 09:46:00,74.3,61.3,29.95,West,260,3.0,5.0,64,0.00,,SKC,0.00,VWS V13.01,2013-06-29 14:46:00,
2013-06-29 09:51:00,74.4,61.0,29.95,NW,310,9.0,14.0,63,0.00,,SKC,0.00,VWS V13.01,2013-06-29 14:51:00,
2013-06-29 09:56:00,74.6,60.3,29.95,NNW,330,9.0,23.0,61,0.00,,SKC,0.00,VWS V13.01,2013-06-29 14:56:00,
2013-06-29 10:01:00,74.6,60.3,29.95,NE,43,1.0,9.0,61,0.00,,SKC,0.00,VWS V13.01,2013-06-29 15:01:00,
2013-06-29 10:06:00,75.0,59.2,29.95,NW,310,7.0,17.0,58,0.00,,SKC,0.00,VWS V13.01,2013-06-29 15:06:00,
2013-06-29 10:11:00,75.2,59.4,29.95,NNW,333,7.0,14.0,58,0.00,,SKC,0.00,VWS V13.01,2013-06-29 15:11:00,
2013-06-29 10:16:00,75.6,59.8,29.95,NW,307,25.0,29.0,58,0.00,,SKC,0.00,VWS V13.01,2013-06-29 15:16:00,
2013-06-29 10:21:00,75.7,58.9,29.95,NW,316,1.0,18.0,56,0.00,,SKC,0.00,VWS V13.01,2013-06-29 15:21:00,
2013-06-29 10:26:00,76.2,59.4,29.94,NNW,331,0.0,15.0,56,0.00,,SKC,0.00,VWS V13.01,2013-06-29 15:26:00,
2013-06-29 10:31:00,76.4,58.5,29.95,NW,321,0.0,19.0,54,0.00,,SKC,0.00,VWS V13.01,2013-06-29 15:31:00,
2013-06-29 10:36:00,76.6,58.7,29.94,North,8,8.0,17.0,54,0.00,,SKC,0.00,VWS V13.01,2013-06-29 15:36:00,
2013-06-29 10:41:00,77.1,59.2,29.95,WNW,287,15.0,19.0,54,0.00,,SKC,0.00,VWS V13.01,2013-06-29 15:41:00,
2013-06-29 10:46:00,77.4,58.4,29.95,NNE,12,4.0,11.0,52,0.00,,SKC,0.00,VWS V13.01,2013-06-29 15:46:00,
2013-06-29 10:51:00,77.3,58.3,29.95,NW,324,4.0,23.0,52,0.00,,SKC,0.00,VWS V13.01,2013-06-29 15:51:00,
2013-06-29 10:56:00,77.1,58.7,29.94,NE,35,0.0,6.0,53,0.00,,SKC,0.00,VWS V13.01,2013-06-29 15:56:00,
2013-06-29 11:01:00,77.8,59.3,29.95,NW,310,6.0,18.0,53,0.00,,SKC,0.00,VWS V13.01,2013-06-29 16:01:00,
2013-06-29 11:06:00,78.1,59.1,29.95,NE,46,12.0,18.0,52,0.00,,SKC,0.00,VWS V13.01,2013-06-29 16:06:00,
2013-06-29 11:11:00,78.6,58.4,29.95,NNE,22,8.0,25.0,50,0.00,,SKC,0.00,VWS V13.01,2013-06-29 16:11:00,
2013-06-29 11:16:00,79.2,59.0,29.95,North,358,1.0,10.0,50,0.00,,SKC,0.00,VWS V13.01,2013-06-29 16:16:00,
2013-06-29 11:21:00,79.6,59.3,29.95,WNW,302,5.0,16.0,50,0.00,,SKC,0.00,VWS V13.01,2013-06-29 16:21:00,
2013-06-29 11:26:00,79.3,57.9,29.95,NW,312,19.0,19.0,48,0.00,,SKC,0.00,VWS V13.01,2013-06-29 16:26:00,
2013-06-29 11:31:00,79.4,58.6,29.94,ENE,67,5.0,21.0,49,0.00,,SKC,0.00,VWS V13.01,2013-06-29 16:31:00,
2013-06-29 11:36:00,79.1,57.8,29.95,West,260,1.0,28.0,48,0.00,,SKC,0.00,VWS V13.01,2013-06-29 16:36:00,
2013-06-29 11:41:00,78.7,58.0,29.95,North,354,6.0,22.0,49,0.00,,SKC,0.00,VWS V13.01,2013-06-29 16:41:00,
2013-06-29 11:46:00,79.3,58.5,29.95,North,3,11.0,14.0,49,0.00,,SKC,0.00,VWS V13.01,2013-06-29 16:46:00,
2013-06-29 11:51:00,80.2,59.3,29.95,NE,35,12.0,18.0,49,0.00,,SKC,0.00,VWS V13.01,2013-06-29 16:51:00,
2013-06-29 11:56:00,81.1,59.6,29.95,NNE,15,8.0,16.0,48,0.00,,SKC,0.00,VWS V13.01,2013-06-29 16:56:00,
2013-06-29 12:01:00,80.9,58.8,29.95,NNW,343,0.0,15.0,47,0.00,,SKC,0.00,VWS V13.01,2013-06-29 17:01:00,
2013-06-29 12:06:00,80.5,58.4,29.95,NE,48,3.0,20.0,47,0.00,,SKC,0.00,VWS V13.01,2013-06-29 17:06:00,
2013-06-29 12:11:00,79.8,59.0,29.94,NNW,346,1.0,7.0,49,0.00,,SKC,0.00,VWS V13.01,2013-06-29 17:11:00,
2013-06-29 12:16:00,80.5,59.6,29.94,WNW,283,2.0,6.0,49,0.00,,SKC,0.00,VWS V13.01,2013-06-29 17:16:00,
2013-06-29 12:21:00,80.9,58.2,29.95,North,358,14.0,14.0,46,0.00,,SKC,0.00,VWS V13.01,2013-06-29 17:21:00,
2013-06-29 12:26:00,81.4,58.7,29.94,NE,47,6.0,19.0,46,0.00,,SKC,0.00,VWS V13.01,2013-06-29 17:26:00,
2013-06-29 12:31:00,81.9,58.5,29.95,NE,42,2.0,12.0,45,0.00,,SKC,0.00,VWS V13.01,2013-06-29 17:31:00,
2013-06-29 12:36:00,82.4,58.3,29.95,North,358,14.0,15.0,44,0.00,,SKC,0.00,VWS V13.01,2013-06-29 17:36:00,
2013-06-29 12:41:00,82.9,58.8,29.95,NNW,335,15.0,17.0,44,0.00,,SKC,0.00,VWS V13.01,2013-06-29 17:41:00,
2013-06-29 12:46:00,82.6,58.5,29.95,NNW,340,0.0,12.0,44,0.00,,SKC,0.00,VWS V13.01,2013-06-29 17:46:00,
2013-06-29 12:51:00,82.2,58.8,29.95,NNW,336,18.0,18.0,45,0.00,,SKC,0.00,VWS V13.01,2013-06-29 17:51:00,
2013-06-29 12:56:00,82.2,58.1,29.95,NE,56,11.0,18.0,44,0.00,,SKC,0.00,VWS V13.01,2013-06-29 17:56:00,
2013-06-29 13:00:00,82.9,59.4,29.95,NNE,16,8.0,20.0,45,0.00,,SKC,0.00,VWS V13.01,2013-06-29 18:00:00,
2013-06-29 13:06:00,83.8,58.9,29.94,ENE,65,1.0,8.0,43,0.00,,SKC,0.00,VWS V13.01,2013-06-29 18:06:00,
2013-06-29 13:11:00,83.7,58.8,29.94,North,3,11.0,21.0,43,0.00,,SKC,0.00,VWS V13.01,2013-06-29 18:11:00,
2013-06-29 13:16:00,83.0,58.9,29.94,WNW,299,7.0,16.0,44,0.00,,SKC,0.00,VWS V13.01,2013-06-29 18:16:00,
2013-06-29 13:21:00,81.9,57.9,29.94,NNE,29,4.0,16.0,44,0.00,,SKC,0.00,VWS V13.01,2013-06-29 18:21:00,
2013-06-29 13:26:00,81.2,57.9,29.94,NNW,330,7.0,17.0,45,0.00,,SKC,0.00,VWS V13.01,2013-06-29 18:26:00,
2013-06-29 13:31:00,81.4,58.7,29.94,NNW,332,6.0,9.0,46,0.00,,SKC,0.00,VWS V13.01,2013-06-29 18:31:00,
2013-06-29 13:36:00,82.2,58.8,29.94,NNE,21,8.0,20.0,45,0.00,,SKC,0.00,VWS V13.01,2013-06-29 18:36:00,
2013-06-29 13:41:00,82.0,58.0,29.94,NW,320,13.0,14.0,44,0.00,,SKC,0.00,VWS V13.01,2013-06-29 18:41:00,
2013-06-29 13:46:00,81.7,58.9,29.94,North,8,18.0,22.0,46,0.00,,SKC,0.00,VWS V13.01,2013-06-29 18:46:00,
2013-06-29 13:51:00,81.9,58.5,29.94,North,351,8.0,12.0,45,0.00,,SKC,0.00,VWS V13.01,2013-06-29 18:51:00,
2013-06-29 13:56:00,82.2,58.1,29.93,NNE,32,13.0,19.0,44,0.00,,SKC,0.00,VWS V13.01,2013-06-29 18:56:00,
2013-06-29 14:01:00,83.0,58.9,29.94,NNE,33,4.0,10.0,44,0.00,,SKC,0.00,VWS V13.01,2013-06-29 19:01:00,
2013-06-29 14:06:00,83.4,59.8,29.93,NW,316,21.0,21.0,45,0.00,,SKC,0.00,VWS V13.01,2013-06-29 19:06:00,
2013-06-29 14:11:00,83.1,58.3,29.94,NNE,18,20.0,21.0,43,0.00,,SKC,0.00,VWS V13.01,2013-06-29 19:11:00,
2013-06-29 14:16:00,82.7,58.6,29.94,North,8,6.0,18.0,44,0.00,,SKC,0.00,VWS V13.01,2013-06-29 19:16:00,
2013-06-29 14:21:00,83.2,60.3,29.93,NW,309,16.0,16.0,46,0.00,,SKC,0.00,VWS V13.01,2013-06-29 19:21:00,
2013-06-29 14:26:00,83.3,59.8,29.93,NW,319,9.0,18.0,45,0.00,,SKC,0.00,VWS V13.01,2013-06-29 19:26:00,
2013-06-29 14:31:00,83.5,59.9,29.93,NW,322,2.0,9.0,45,0.00,,SKC,0.00,VWS V13.01,2013-06-29 19:31:00,
2013-06-29 14:36:00,83.6,58.8,29.93,NNW,340,10.0,17.0,43,0.00,,SKC,0.00,VWS V13.01,2013-06-29 19:36:00,
2013-06-29 14:41:00,82.7,58.0,29.93,NNW,339,2.0,13.0,43,0.00,,SKC,0.00,VWS V13.01,2013-06-29 19:41:00,
2013-06-29 14:46:00,82.6,58.5,29.93,NE,45,0.0,17.0,44,0.00,,SKC,0.00,VWS V13.01,2013-06-29 19:46:00,
2013-06-29 14:51:00,82.6,58.5,29.93,ENE,68,2.0,19.0,44,0.00,,SKC,0.00,VWS V13.01,2013-06-29 19:51:00,
2013-06-29 14:56:00,82.2,58.8,29.94,NNW,333,7.0,15.0,45,0.00,,SKC,0.00,VWS V13.01,2013-06-29 19:56:00,
2013-06-29 15:01:00,82.8,58.7,29.93,NNE,23,4.0,12.0,44,0.00,,SKC,0.00,VWS V13.01,2013-06-29 20:01:00,
2013-06-29 15:06:00,83.7,58.8,29.94,NNE,33,5.0,22.0,43,0.00,,SKC,0.00,VWS V13.01,2013-06-29 20:06:00,
2013-06-29 15:11:00,83.6,58.1,29.93,NE,43,4.0,21.0,42,0.00,,SKC,0.00,VWS V13.01,2013-06-29 20:11:00,
2013-06-29 15:16:00,83.8,58.3,29.93,NNE,24,10.0,15.0,42,0.00,,SKC,0.00,VWS V13.01,2013-06-29 20:16:00,
2013-06-29 15:21:00,83.8,58.3,29.94,NNE,27,15.0,15.0,42,0.00,,SKC,0.00,VWS V13.01,2013-06-29 20:21:00,
2013-06-29 15:26:00,84.6,60.3,29.93,NW,309,15.0,18.0,44,0.00,,SKC,0.00,VWS V13.01,2013-06-29 20:26:00,
2013-06-29 15:31:00,85.0,59.4,29.93,NNE,19,10.0,15.0,42,0.00,,SKC,0.00,VWS V13.01,2013-06-29 20:31:00,
2013-06-29 15:36:00,84.9,59.3,29.93,North,349,6.0,9.0,42,0.00,,SKC,0.00,VWS V13.01,2013-06-29 20:36:00,
2013-06-29 15:41:00,84.4,58.8,29.93,NNE,32,13.0,18.0,42,0.00,,SKC,0.00,VWS V13.01,2013-06-29 20:41:00,
2013-06-29 15:46:00,83.8,59.6,29.93,North,349,4.0,12.0,44,0.00,,SKC,0.00,VWS V13.01,2013-06-29 20:46:00,
2013-06-29 15:51:00,84.2,60.0,29.93,North,8,13.0,15.0,44,0.00,,SKC,0.00,VWS V13.01,2013-06-29 20:51:00,
2013-06-29 15:56:00,84.2,58.6,29.93,NNW,329,4.0,17.0,42,0.00,,SKC,0.00,VWS V13.01,2013-06-29 20:56:00,
2013-06-29 16:01:00,84.3,58.7,29.93,North,349,7.0,21.0,42,0.00,,SKC,0.00,VWS V13.01,2013-06-29 21:01:00,
2013-06-29 16:06:00,84.6,59.7,29.93,North,358,5.0,21.0,43,0.00,,SKC,0.00,VWS V13.01,2013-06-29 21:06:00,
2013-06-29 16:11:00,84.4,59.5,29.93,NNE,18,4.0,11.0,43,0.00,,SKC,0.00,VWS V13.01,2013-06-29 21:11:00,
2013-06-29 16:16:00,84.0,58.5,29.93,NNE,33,4.0,13.0,42,0.00,,SKC,0.00,VWS V13.01,2013-06-29 21:16:00,
2013-06-29 16:21:00,83.6,58.8,29.93,NE,54,7.0,22.0,43,0.00,,SKC,0.00,VWS V13.01,2013-06-29 21:21:00,
2013-06-29 16:26:00,83.7,59.5,29.93,North,358,6.0,15.0,44,0.00,,SKC,0.00,VWS V13.01,2013-06-29 21:26:00,
2013-06-29 16:31:00,83.5,59.3,29.93,NW,317,7.0,18.0,44,0.00,,SKC,0.00,VWS V13.01,2013-06-29 21:31:00,
2013-06-29 16:36:00,83.5,59.9,29.93,NNE,20,9.0,18.0,45,0.00,,SKC,0.00,VWS V13.01,2013-06-29 21:36:00,
2013-06-29 16:41:00,83.3,59.8,29.93,NE,44,7.0,16.0,45,0.00,,SKC,0.00,VWS V13.01,2013-06-29 21:41:00,
2013-06-29 16:46:00,83.4,59.8,29.94,NE,44,9.0,24.0,45,0.00,,SKC,0.00,VWS V13.01,2013-06-29 21:46:00,
2013-06-29 16:51:00,83.1,60.2,29.94,North,8,11.0,22.0,46,0.00,,SKC,0.00,VWS V13.01,2013-06-29 21:51:00,
2013-06-29 16:56:00,83.1,60.2,29.93,NE,36,2.0,17.0,46,0.00,,SKC,0.00,VWS V13.01,2013-06-29 21:56:00,
2013-06-29 17:01:00,82.7,59.2,29.94,NE,34,12.0,12.0,45,0.00,,SKC,0.00,VWS V13.01,2013-06-29 22:01:00,
2013-06-29 17:06:00,82.5,60.3,29.94,NE,34,14.0,14.0,47,0.00,,SKC,0.00,VWS V13.01,2013-06-29 22:06:00,
2013-06-29 17:11:00,82.7,58.6,29.94,North,8,7.0,21.0,44,0.00,,SKC,0.00,VWS V13.01,2013-06-29 22:11:00,
2013-06-29 17:16:00,82.7,58.0,29.94,NNE,30,17.0,26.0,43,0.00,,SKC,0.00,VWS V13.01,2013-06-29 22:16:00,
2013-06-29 17:21:00,82.3,58.2,29.94,ENE,60,7.0,17.0,44,0.00,,SKC,0.00,VWS V13.01,2013-06-29 22:21:00,
2013-06-29 17:26:00,82.6,58.5,29.94,NNE,22,6.0,12.0,44,0.00,,SKC,0.00,VWS V13.01,2013-06-29 22:26:00,
2013-06-29 17:31:00,82.3,57.6,29.94,NNW,340,0.0,13.0,43,0.00,,SKC,0.00,VWS V13.01,2013-06-29 22:31:00,
2013-06-29 17:37:00,82.8,58.7,29.94,NE,39,10.0,12.0,44,0.00,,SKC,0.00,VWS V13.01,2013-06-29 22:37:00,
2013-06-29 17:43:00,82.3,58.2,29.94,NE,54,1.0,11.0,44,0.00,,SKC,0.00,VWS V13.01,2013-06-29 22:43:00,
2013-06-29 17:48:00,82.4,59.0,29.94,NNW,337,5.0,23.0,45,0.00,,SKC,0.00,VWS V13.01,2013-06-29 22:48:00,
2013-06-29 17:53:00,82.2,60.0,29.94,NNE,25,4.0,8.0,47,0.00,,SKC,0.00,VWS V13.01,2013-06-29 22:53:00,
2013-06-29 17:58:00,81.4,59.8,29.94,NE,37,14.0,14.0,48,0.00,,SKC,0.00,VWS V13.01,2013-06-29 22:58:00,
2013-06-29 18:03:00,80.7,60.3,29.94,NE,35,7.0,11.0,50,0.00,,SKC,0.00,VWS V13.01,2013-06-29 23:03:00,
2013-06-29 18:08:00,79.9,60.2,29.94,NNE,16,4.0,5.0,51,0.00,,SKC,0.00,VWS V13.01,2013-06-29 23:08:00,
2013-06-29 18:13:00,79.5,59.8,29.94,ENE,58,1.0,7.0,51,0.00,,SKC,0.00,VWS V13.01,2013-06-29 23:13:00,
2013-06-29 18:18:00,79.3,59.6,29.94,NNE,20,1.0,8.0,51,0.00,,SKC,0.00,VWS V13.01,2013-06-29 23:18:00,
2013-06-29 18:23:00,78.8,59.2,29.94,NNE,22,1.0,10.0,51,0.00,,SKC,0.00,VWS V13.01,2013-06-29 23:23:00,
2013-06-29 18:28:00,78.6,59.5,29.94,ENE,58,7.0,10.0,52,0.00,,SKC,0.00,VWS V13.01,2013-06-29 23:28:00,
2013-06-29 18:33:00,78.7,59.6,29.94,NNE,19,9.0,13.0,52,0.00,,SKC,0.00,VWS V13.01,2013-06-29 23:33:00,
2013-06-29 18:38:00,78.6,59.5,29.94,NE,45,8.0,12.0,52,0.00,,SKC,0.00,VWS V13.01,2013-06-29 23:38:00,
2013-06-29 18:43:00,78.5,58.9,29.94,North,8,4.0,10.0,51,0.00,,SKC,0.00,VWS V13.01,2013-06-29 23:43:00,
2013-06-29 18:48:00,78.6,59.0,29.94,NE,39,12.0,14.0,51,0.00,,SKC,0.00,VWS V13.01,2013-06-29 23:48:00,
2013-06-29 18:53:00,78.7,59.1,29.94,NNE,15,8.0,9.0,51,0.00,,SKC,0.00,VWS V13.01,2013-06-29 23:53:00,
2013-06-29 18:58:00,79.0,58.8,29.94,NNE,18,1.0,5.0,50,0.00,,SKC,0.00,VWS V13.01,2013-06-29 23:58:00,
2013-06-29 19:03:00,79.3,59.1,29.94,NNE,12,3.0,9.0,50,0.00,,SKC,0.00,VWS V13.01,2013-06-30 00:03:00,
2013-06-29 19:08:00,79.3,59.1,29.94,ENE,62,4.0,9.0,50,0.00,,SKC,0.00,VWS V13.01,2013-06-30 00:08:00,
2013-06-29 19:13:00,79.3,58.5,29.94,ENE,72,5.0,12.0,49,0.00,,SKC,0.00,VWS V13.01,2013-06-30 00:13:00,
2013-06-29 19:18:00,79.2,57.8,29.94,NW,316,2.0,11.0,48,0.00,,SKC,0.00,VWS V13.01,2013-06-30 00:18:00,
2013-06-29 19:23:00,78.9,58.1,29.94,NE,41,4.0,11.0,49,0.00,,SKC,0.00,VWS V13.01,2013-06-30 00:23:00,
2013-06-29 19:28:00,78.7,58.0,29.94,North,3,0.0,6.0,49,0.00,,SKC,0.00,VWS V13.01,2013-06-30 00:28:00,
2013-06-29 19:33:00,78.8,57.5,29.94,NNE,18,3.0,7.0,48,0.00,,SKC,0.00,VWS V13.01,2013-06-30 00:33:00,
2013-06-29 19:38:00,78.8,57.5,29.94,North,351,7.0,12.0,48,0.00,,SKC,0.00,VWS V13.01,2013-06-30 00:38:00,
2013-06-29 19:43:00,78.8,57.5,29.94,North,351,5.0,6.0,48,0.00,,SKC,0.00,VWS V13.01,2013-06-30 00:43:00,
2013-06-29 19:48:00,78.8,56.9,29.94,NNE,23,0.0,7.0,47,0.00,,SKC,0.00,VWS V13.01,2013-06-30 00:48:00,
2013-06-29 19:53:00,78.8,56.9,29.94,North,353,0.0,1.0,47,0.00,,SKC,0.00,VWS V13.01,2013-06-30 00:53:00,
2013-06-29 19:58:00,78.8,56.3,29.95,NE,34,0.0,8.0,46,0.00,,SKC,0.00,VWS V13.01,2013-06-30 00:58:00,
2013-06-29 19:59:00,78.7,56.2,29.95,NE,56,1.0,9.0,46,0.00,,SKC,0.00,VWS V13.01,2013-06-30 00:59:00,
2013-06-29 20:04:00,78.4,55.3,29.95,NE,35,4.0,4.0,45,0.00,,SKC,0.00,VWS V13.01,2013-06-30 01:04:00,
2013-06-29 20:09:00,77.9,54.9,29.95,NE,34,1.0,10.0,45,0.00,,SKC,0.00,VWS V13.01,2013-06-30 01:09:00,
2013-06-29 20:14:00,77.7,55.3,29.95,NNE,15,5.0,7.0,46,0.00,,SKC,0.00,VWS V13.01,2013-06-30 01:14:00,
2013-06-29 20:19:00,77.5,55.1,29.95,NNE,29,0.0,3.0,46,0.00,,SKC,0.00,VWS V13.01,2013-06-30 01:19:00,
2013-06-29 20:24:00,77.3,54.9,29.95,NNE,29,2.0,3.0,46,0.00,,SKC,0.00,VWS V13.01,2013-06-30 01:24:00,
2013-06-29 20:29:00,77.1,55.3,29.95,NNE,14,0.0,0.0,47,0.00,,SKC,0.00,VWS V13.01,2013-06-30 01:29:00,
2013-06-29 20:34:00,76.9,55.2,29.95,NNW,331,0.0,4.0,47,0.00,,SKC,0.00,VWS V13.01,2013-06-30 01:34:00,
2013-06-29 20:39:00,76.6,55.5,29.95,NNE,31,0.0,0.0,48,0.00,,SKC,0.00,VWS V13.01,2013-06-30 01:39:00,
2013-06-29 20:44:00,76.4,55.8,29.95,NNE,30,0.0,0.0,49,0.00,,SKC,0.00,VWS V13.01,2013-06-30 01:44:00,
2013-06-29 20:49:00,76.1,55.6,29.95,NNE,16,0.0,0.0,49,0.00,,SKC,0.00,VWS V13.01,2013-06-30 01:49:00,
2013-06-29 20:54:00,75.7,55.8,29.95,North,8,0.0,2.0,50,0.00,,SKC,0.00,VWS V13.01,2013-06-30 01:54:00,
2013-06-29 20:59:00,75.5,55.6,29.95,North,8,0.0,0.0,50,0.00,,SKC,0.00,VWS V13.01,2013-06-30 01:59:00,
2013-06-29 21:04:00,75.2,55.3,29.95,North,8,0.0,0.0,50,0.00,,SKC,0.00,VWS V13.01,2013-06-30 02:04:00,
2013-06-29 21:09:00,75.0,55.7,29.95,North,8,0.0,0.0,51,0.00,,SKC,0.00,VWS V13.01,2013-06-30 02:09:00,
2013-06-29 21:14:00,74.8,55.5,29.95,North,358,0.0,0.0,51,0.00,,SKC,0.00,VWS V13.01,2013-06-30 02:14:00,
2013-06-29 21:19:00,74.5,55.7,29.95,North,358,0.0,0.0,52,0.00,,SKC,0.00,VWS V13.01,2013-06-30 02:19:00,
2013-06-29 21:20:00,74.4,55.7,29.95,North,358,0.0,0.0,52,0.00,,SKC,0.00,VWS V13.01,2013-06-30 02:20:00,
2013-06-29 21:25:00,74.2,55.5,29.95,North,358,0.0,0.0,52,0.00,,SKC,0.00,VWS V13.01,2013-06-30 02:25:00,
2013-06-29 21:30:00,73.9,55.7,29.96,North,358,0.0,0.0,53,0.00,,SKC,0.00,VWS V13.01,2013-06-30 02:30:00,
2013-06-29 21:35:00,73.6,56.0,29.96,North,358,0.0,0.0,54,0.00,,SKC,0.00,VWS V13.01,2013-06-30 02:35:00,
2013-06-29 21:40:00,73.4,55.8,29.96,North,358,0.0,0.0,54,0.00,,SKC,0.00,VWS V13.01,2013-06-30 02:40:00,
2013-06-29 21:45:00,73.1,55.5,29.96,North,358,0.0,0.0,54,0.00,,SKC,0.00,VWS V13.01,2013-06-30 02:45:00,
2013-06-29 21:50:00,72.8,55.7,29.96,North,358,0.0,0.0,55,0.00,,SKC,0.00,VWS V13.01,2013-06-30 02:50:00,
2013-06-29 21:55:00,72.6,56.0,29.96,NNW,334,0.0,4.0,56,0.00,,SKC,0.00,VWS V13.01,2013-06-30 02:55:00,
2013-06-29 22:00:00,72.3,55.7,29.97,NNW,347,0.0,1.0,56,0.00,,SKC,0.00,VWS V13.01,2013-06-30 03:00:00,
2013-06-29 22:05:00,72.2,56.1,29.97,NNW,346,0.0,0.0,57,0.00,,SKC,0.00,VWS V13.01,2013-06-30 03:05:00,
2013-06-29 22:10:00,72.1,56.0,29.97,North,351,0.0,0.0,57,0.00,,SKC,0.00,VWS V13.01,2013-06-30 03:10:00,
2013-06-29 22:15:00,72.0,56.0,29.97,North,351,0.0,0.0,57,0.00,,SKC,0.00,VWS V13.01,2013-06-30 03:15:00,
2013-06-29 22:20:00,71.9,56.3,29.97,North,351,0.0,0.0,58,0.00,,SKC,0.00,VWS V13.01,2013-06-30 03:20:00,
2013-06-29 22:25:00,71.8,56.2,29.97,North,350,0.0,0.0,58,0.00,,SKC,0.00,VWS V13.01,2013-06-30 03:25:00,
2013-06-29 22:30:00,71.7,56.2,29.98,North,350,0.0,0.0,58,0.00,,SKC,0.00,VWS V13.01,2013-06-30 03:30:00,
2013-06-29 22:35:00,71.5,56.4,29.98,North,351,0.0,0.0,59,0.00,,SKC,0.00,VWS V13.01,2013-06-30 03:35:00,
2013-06-29 22:40:00,71.4,56.3,29.98,North,351,0.0,0.0,59,0.00,,SKC,0.00,VWS V13.01,2013-06-30 03:40:00,
2013-06-29 22:45:00,71.3,56.2,29.98,North,351,0.0,0.0,59,0.00,,SKC,0.00,VWS V13.01,2013-06-30 03:45:00,
2013-06-29 22:50:00,71.2,56.6,29.98,North,351,0.0,0.0,60,0.00,,SKC,0.00,VWS V13.01,2013-06-30 03:50:00,
2013-06-29 22:55:00,71.0,56.4,29.98,North,351,0.0,0.0,60,0.00,,SKC,0.00,VWS V13.01,2013-06-30 03:55:00,
2013-06-29 23:00:00,70.8,56.7,29.98,North,351,0.0,0.0,61,0.00,,SKC,0.00,VWS V13.01,2013-06-30 04:00:00,
2013-06-29 23:01:00,70.8,56.7,29.98,North,351,0.0,0.0,61,0.00,,SKC,0.00,VWS V13.01,2013-06-30 04:01:00,
2013-06-29 23:02:00,70.8,56.7,29.98,North,351,0.0,0.0,61,0.00,,SKC,0.00,VWS V13.01,2013-06-30 04:02:00,
2013-06-29 23:04:00,70.7,56.6,29.98,North,351,0.0,0.0,61,0.00,,SKC,0.00,VWS V13.01,2013-06-30 04:04:00,
2013-06-29 23:06:00,70.6,56.5,29.98,North,351,0.0,0.0,61,0.00,,SKC,0.00,VWS V13.01,2013-06-30 04:06:00,
2013-06-29 23:11:00,70.4,56.3,29.99,North,351,0.0,0.0,61,0.00,,SKC,0.00,VWS V13.01,2013-06-30 04:11:00,
2013-06-29 23:16:00,70.3,56.7,29.99,North,351,0.0,0.0,62,0.00,,SKC,0.00,VWS V13.01,2013-06-30 04:16:00,
2013-06-29 23:21:00,70.1,56.5,29.99,North,351,0.0,0.0,62,0.00,,SKC,0.00,VWS V13.01,2013-06-30 04:21:00,
2013-06-29 23:24:00,70.0,56.8,29.99,North,351,0.0,0.0,63,0.00,,SKC,0.00,VWS V13.01,2013-06-30 04:24:00,
2013-06-29 23:29:00,69.8,57.1,29.99,North,351,0.0,0.0,64,0.00,,SKC,0.00,VWS V13.01,2013-06-30 04:29:00,
2013-06-29 23:34:00,69.6,56.9,29.99,North,351,0.0,0.0,64,0.00,,SKC,0.00,VWS V13.01,2013-06-30 04:34:00,
2013-06-29 23:39:00,69.2,57.0,29.99,North,351,0.0,0.0,65,0.00,,SKC,0.00,VWS V13.01,2013-06-30 04:39:00,
2013-06-29 23:44:00,68.9,56.7,29.99,North,351,0.0,0.0,65,0.00,,SKC,0.00,VWS V13.01,2013-06-30 04:44:00,
2013-06-29 23:49:00,68.6,56.8,29.99,North,351,0.0,0.0,66,0.00,,SKC,0.00,VWS V13.01,2013-06-30 04:49:00,
2013-06-29 23:54:00,68.2,57.2,29.99,North,351,0.0,0.0,68,0.00,,SKC,0.00,VWS V13.01,2013-06-30 04:54:00,
2013-06-29 23:59:00,67.8,56.9,29.99,North,351,0.0,0.0,68,0.00,,SKC,0.00,VWS V13.01,2013-06-30 04:59:00,